Time;durP1;ratioP1;P1;durP2;ratioP2;P2;SDS_P1;SDS_P2;PMS_P1;PMS_P2;Temp;Humidity;BMP_temperature;BMP_pressure;BME280_temperature;BME280_humidity;BME280_pressure;Samples;Min_cycle;Max_cycle;Signal;HPM_P1;HPM_P2
2021/01/30 00:00:25;;;;;;;2.57;1.80;;;-13.50;99.90;;;;;;5014275;28;20201;-70
2021/01/30 00:02:50;;;;;;;3.10;1.70;;;-13.50;99.90;;;;;;5012691;28;20222;-70
2021/01/30 00:05:16;;;;;;;2.87;1.73;;;-13.50;99.90;;;;;;5016317;28;20214;-69
2021/01/30 00:07:42;;;;;;;8.87;2.00;;;-13.50;99.90;;;;;;5013296;28;20195;-70
2021/01/30 00:10:08;;;;;;;4.10;1.80;;;-13.50;99.90;;;;;;5014641;28;20202;-70
2021/01/30 00:12:34;;;;;;;1.70;1.57;;;-13.50;99.90;;;;;;5000407;28;20365;-70
2021/01/30 00:15:00;;;;;;;5.33;1.93;;;-13.50;99.90;;;;;;4997651;28;20283;-69
2021/01/30 00:17:25;;;;;;;4.27;1.60;;;-13.60;99.90;;;;;;5002512;28;20233;-69
2021/01/30 00:19:51;;;;;;;1.93;1.70;;;-13.60;99.90;;;;;;5019883;28;20214;-69
2021/01/30 00:22:19;;;;;;;2.00;1.43;;;-13.60;99.90;;;;;;5017996;28;20681;-69
2021/01/30 00:24:47;;;;;;;1.63;1.50;;;-13.50;99.90;;;;;;5015350;28;20187;-69
2021/01/30 00:27:23;;;;;;;5.43;2.03;;;-13.50;99.90;;;;;;4995809;28;20226;-70
2021/01/30 00:29:49;;;;;;;2.83;1.90;;;-13.50;99.90;;;;;;5016126;28;20198;-70
2021/01/30 00:32:18;;;;;;;2.10;1.57;;;-13.50;99.90;;;;;;5015926;28;20572;-69
2021/01/30 00:34:45;;;;;;;3.67;1.67;;;-13.50;99.90;;;;;;5013084;28;20552;-69
2021/01/30 00:37:20;;;;;;;6.10;1.77;;;-13.50;99.90;;;;;;5011950;28;20199;-70
2021/01/30 00:39:47;;;;;;;2.07;1.67;;;-13.50;99.90;;;;;;5015324;28;20210;-69
2021/01/30 00:42:16;;;;;;;2.37;1.40;;;-13.50;99.90;;;;;;5022703;28;20191;-70
2021/01/30 00:44:42;;;;;;;5.00;1.80;;;-13.50;99.90;;;;;;5018931;28;20198;-68
2021/01/30 00:47:08;;;;;;;3.47;1.77;;;-13.50;99.90;;;;;;5015981;28;20225;-69
2021/01/30 00:49:34;;;;;;;3.90;1.70;;;-13.60;99.90;;;;;;5018015;28;20226;-70
2021/01/30 00:52:00;;;;;;;5.60;1.90;;;-13.70;99.90;;;;;;5013522;28;20274;-70
2021/01/30 00:54:26;;;;;;;3.17;1.67;;;-13.70;99.90;;;;;;5015194;28;20950;-69
2021/01/30 00:56:55;;;;;;;3.07;1.70;;;-13.70;99.90;;;;;;5018288;28;20210;-70
2021/01/30 00:59:22;;;;;;;3.73;1.50;;;-13.70;99.90;;;;;;5014437;28;20206;-69
2021/01/30 01:01:50;;;;;;;7.30;1.97;;;-13.60;99.90;;;;;;5018199;28;20199;-69
2021/01/30 01:04:16;;;;;;;2.20;1.57;;;-13.60;99.90;;;;;;5014869;28;20708;-70
2021/01/30 01:06:42;;;;;;;3.43;1.90;;;-13.60;99.90;;;;;;5015322;28;20206;-69
2021/01/30 01:09:08;;;;;;;3.73;2.03;;;-13.60;99.90;;;;;;5015264;28;20202;-69
2021/01/30 01:11:36;;;;;;;3.10;1.70;;;-13.60;99.90;;;;;;5016994;28;20198;-70
2021/01/30 01:14:03;;;;;;;3.67;1.80;;;-13.60;99.90;;;;;;5017667;28;20223;-69
2021/01/30 01:16:29;;;;;;;6.53;1.90;;;-13.70;99.90;;;;;;5016082;28;20209;-70
2021/01/30 01:18:55;;;;;;;2.03;1.30;;;-13.70;99.90;;;;;;5015037;28;20211;-70
2021/01/30 01:21:20;;;;;;;3.67;1.60;;;-13.70;99.90;;;;;;5018788;28;20198;-68
2021/01/30 01:23:47;;;;;;;11.50;2.37;;;-13.70;99.90;;;;;;5017225;28;20199;-69
2021/01/30 01:26:15;;;;;;;4.20;1.60;;;-13.70;99.90;;;;;;4997606;28;20195;-70
2021/01/30 01:28:41;;;;;;;4.60;1.80;;;-13.80;99.90;;;;;;5015923;28;20657;-69
2021/01/30 01:31:07;;;;;;;2.67;1.40;;;-13.80;99.90;;;;;;5015403;28;20289;-68
2021/01/30 01:33:33;;;;;;;4.23;1.97;;;-13.80;99.90;;;;;;5015905;28;20211;-69
2021/01/30 01:35:59;;;;;;;4.00;1.90;;;-13.80;99.90;;;;;;5014534;28;20268;-68
2021/01/30 01:38:26;;;;;;;5.90;1.67;;;-13.80;99.90;;;;;;5015678;28;20210;-69
2021/01/30 01:40:52;;;;;;;6.10;1.80;;;-13.80;99.90;;;;;;5015411;28;20565;-69
2021/01/30 01:43:26;;;;;;;4.33;1.63;;;-13.80;99.90;;;;;;4995181;28;20257;-70
2021/01/30 01:46:12;;;;;;;2.57;1.70;;;-13.80;99.90;;;;;;5015892;28;20213;-69
2021/01/30 01:48:51;;;;;;;3.27;1.80;;;-13.80;99.90;;;;;;5017271;28;20194;-69
2021/01/30 01:51:38;;;;;;;1.70;1.40;;;-13.90;99.90;;;;;;5012557;28;20225;-69
2021/01/30 01:54:09;;;;;;;2.13;1.63;;;-13.90;99.90;;;;;;5013589;28;20206;-69
2021/01/30 01:56:36;;;;;;;2.90;1.60;;;-13.90;99.90;;;;;;5014282;28;20221;-69
2021/01/30 01:59:07;;;;;;;7.70;2.13;;;-13.90;99.90;;;;;;5016370;28;21113;-69
2021/01/30 02:01:35;;;;;;;5.20;2.07;;;-13.90;99.90;;;;;;5015456;28;20226;-69
2021/01/30 02:04:03;;;;;;;2.57;1.50;;;-13.90;99.90;;;;;;5005220;28;20233;-71
2021/01/30 02:06:29;;;;;;;3.57;1.80;;;-13.90;99.90;;;;;;5016729;28;20663;-70
2021/01/30 02:08:55;;;;;;;1.63;1.40;;;-13.90;99.90;;;;;;5014463;28;20209;-70
2021/01/30 02:11:20;;;;;;;3.60;1.70;;;-13.90;99.90;;;;;;5014259;28;20195;-70
2021/01/30 02:13:50;;;;;;;2.33;1.50;;;-13.90;99.90;;;;;;5015919;28;20199;-71
2021/01/30 02:16:40;;;;;;;1.80;1.50;;;-13.90;99.90;;;;;;4999238;28;20398;-70
2021/01/30 02:19:27;;;;;;;4.43;1.70;;;-13.90;99.90;;;;;;5011914;28;20711;-71
2021/01/30 02:22:16;;;;;;;2.53;1.60;;;-13.80;99.90;;;;;;5008510;28;20205;-70
2021/01/30 02:25:09;;;;;;;2.33;1.60;;;-13.80;99.90;;;;;;4999235;28;20260;-71
2021/01/30 02:27:50;;;;;;;2.40;1.50;;;-13.80;99.90;;;;;;5011472;28;20865;-71
2021/01/30 02:30:53;;;;;;;4.07;1.90;;;-13.80;99.90;;;;;;5012291;28;20197;-70
2021/01/30 02:33:46;;;;;;;3.13;1.67;;;-13.80;99.90;;;;;;5013884;28;21638;-70
2021/01/30 02:36:54;;;;;;;3.17;1.80;;;-13.70;99.90;;;;;;5015793;28;20213;-70
2021/01/30 02:39:28;;;;;;;2.73;1.60;;;-13.70;99.90;;;;;;4979057;28;20215;-70
2021/01/30 02:42:17;;;;;;;2.63;1.70;;;-13.70;99.90;;;;;;4976461;28;20706;-70
2021/01/30 02:44:50;;;;;;;1.83;1.70;;;-13.60;99.90;;;;;;4976901;28;20592;-70
2021/01/30 02:47:20;;;;;;;6.00;2.10;;;-13.60;99.90;;;;;;4978866;28;20283;-70
2021/01/30 02:49:53;;;;;;;2.17;1.73;;;-13.60;99.90;;;;;;4976292;28;20200;-70
2021/01/30 02:52:24;;;;;;;3.40;1.73;;;-13.60;99.90;;;;;;4978124;28;20277;-71
2021/01/30 02:54:54;;;;;;;3.47;1.90;;;-13.70;99.90;;;;;;4975017;28;20215;-70
2021/01/30 02:57:23;;;;;;;4.73;2.10;;;-13.70;99.90;;;;;;4963464;28;20242;-70
2021/01/30 02:59:54;;;;;;;6.17;2.03;;;-13.70;99.90;;;;;;4974682;28;20304;-70
2021/01/30 03:02:22;;;;;;;4.20;2.13;;;-13.70;99.90;;;;;;4962824;28;20678;-70
2021/01/30 03:04:51;;;;;;;4.43;2.00;;;-13.70;99.90;;;;;;4956335;28;20211;-70
2021/01/30 03:07:52;;;;;;;6.73;1.80;;;-13.80;99.90;;;;;;4959001;28;20209;-70
2021/01/30 03:10:40;;;;;;;2.57;1.63;;;-13.90;99.90;;;;;;4942913;28;20752;-70
2021/01/30 03:13:42;;;;;;;2.03;1.63;;;-13.90;99.90;;;;;;4970254;28;20207;-70
2021/01/30 03:16:20;;;;;;;2.13;1.80;;;-13.90;99.90;;;;;;4982578;28;20689;-70
2021/01/30 03:18:57;;;;;;;7.80;2.10;;;-13.90;99.90;;;;;;4983500;28;20204;-71
2021/01/30 03:21:24;;;;;;;2.73;1.67;;;-14.00;99.90;;;;;;4987097;28;20260;-70
2021/01/30 03:23:50;;;;;;;4.73;1.90;;;-14.00;99.90;;;;;;4986452;28;20732;-70
2021/01/30 03:26:20;;;;;;;6.67;2.30;;;-14.10;99.90;;;;;;4985350;28;20207;-69
2021/01/30 03:28:47;;;;;;;4.83;2.23;;;-14.20;99.90;;;;;;4982827;28;20203;-70
2021/01/30 03:31:13;;;;;;;4.80;2.03;;;-14.30;99.90;;;;;;4981938;28;20299;-70
2021/01/30 03:33:39;;;;;;;6.17;2.10;;;-14.30;99.90;;;;;;4983286;28;20270;-71
2021/01/30 03:36:06;;;;;;;3.57;1.87;;;-14.30;99.90;;;;;;4981789;28;20203;-70
2021/01/30 03:38:32;;;;;;;7.40;2.07;;;-14.30;99.90;;;;;;4979688;28;20238;-70
2021/01/30 03:40:57;;;;;;;3.10;1.90;;;-14.20;99.90;;;;;;4982442;28;20219;-71
2021/01/30 03:43:23;;;;;;;2.37;1.83;;;-14.10;99.90;;;;;;4980837;28;20196;-71
2021/01/30 03:45:49;;;;;;;3.43;2.03;;;-14.00;99.90;;;;;;4983703;28;20654;-70
2021/01/30 03:48:15;;;;;;;2.60;1.70;;;-13.90;99.90;;;;;;4982145;28;20251;-70
2021/01/30 03:50:41;;;;;;;5.27;1.93;;;-13.80;99.90;;;;;;4981195;28;20282;-72
2021/01/30 03:53:07;;;;;;;2.80;1.90;;;-13.80;99.90;;;;;;4983273;28;20198;-70
2021/01/30 03:55:34;;;;;;;2.83;1.73;;;-13.80;99.90;;;;;;4981536;28;20204;-70
2021/01/30 03:58:00;;;;;;;4.53;1.53;;;-13.70;99.90;;;;;;4977385;28;20230;-71
2021/01/30 04:00:26;;;;;;;3.63;1.80;;;-13.70;99.90;;;;;;4978311;28;20299;-70
2021/01/30 04:02:52;;;;;;;3.03;2.00;;;-13.60;99.90;;;;;;4991242;28;20240;-70
2021/01/30 04:05:21;;;;;;;5.13;2.40;;;-13.60;99.90;;;;;;5001389;28;20286;-70
2021/01/30 04:07:48;;;;;;;1.83;1.70;;;-13.60;99.90;;;;;;5017169;28;20190;-70
2021/01/30 04:10:22;;;;;;;6.77;2.40;;;-13.50;99.90;;;;;;5016300;28;20221;-70
2021/01/30 04:12:47;;;;;;;6.03;2.07;;;-13.50;99.90;;;;;;5012261;28;20202;-70
2021/01/30 04:15:23;;;;;;;9.73;2.10;;;-13.60;99.90;;;;;;5017790;28;20198;-69
2021/01/30 04:17:49;;;;;;;3.63;1.90;;;-13.60;99.90;;;;;;4997935;28;20653;-70
2021/01/30 04:20:16;;;;;;;12.00;2.13;;;-13.80;99.90;;;;;;5017613;28;20206;-70
2021/01/30 04:22:42;;;;;;;6.63;2.10;;;-13.80;99.90;;;;;;5020747;28;20210;-71
2021/01/30 04:25:08;;;;;;;4.30;1.97;;;-13.90;99.90;;;;;;5015069;28;20195;-71
2021/01/30 04:27:34;;;;;;;2.73;1.90;;;-13.90;99.90;;;;;;5018265;28;20226;-70
2021/01/30 04:30:00;;;;;;;7.60;2.17;;;-13.90;99.90;;;;;;4997152;28;20605;-72
2021/01/30 04:32:25;;;;;;;3.77;1.97;;;-13.90;99.90;;;;;;5020290;28;20967;-70
2021/01/30 04:34:51;;;;;;;5.67;2.20;;;-13.90;99.90;;;;;;5005777;28;20715;-72
2021/01/30 04:37:17;;;;;;;3.70;2.13;;;-13.90;99.90;;;;;;5019822;28;20207;-71
2021/01/30 04:39:43;;;;;;;4.00;1.83;;;-13.90;99.90;;;;;;5019539;28;20217;-70
2021/01/30 04:42:30;;;;;;;5.03;2.70;;;-13.80;99.90;;;;;;5019254;28;20190;-70
2021/01/30 04:45:05;;;;;;;4.33;2.20;;;-13.80;99.90;;;;;;5014766;28;20205;-71
2021/01/30 04:47:58;;;;;;;4.37;2.10;;;-13.80;99.90;;;;;;5000234;28;20588;-70
2021/01/30 04:50:44;;;;;;;3.57;2.10;;;-13.80;99.90;;;;;;5019195;28;20202;-70
2021/01/30 04:53:34;;;;;;;4.73;1.97;;;-13.90;99.90;;;;;;4967753;28;20760;-71
2021/01/30 04:56:15;;;;;;;6.03;1.90;;;-13.90;99.90;;;;;;5017246;28;20249;-71
2021/01/30 04:59:01;;;;;;;4.53;1.63;;;-13.90;99.90;;;;;;5017210;28;20236;-70
2021/01/30 05:01:30;;;;;;;3.57;1.73;;;-13.90;99.90;;;;;;5016981;28;20222;-71
2021/01/30 05:04:21;;;;;;;4.63;2.13;;;-13.80;99.90;;;;;;5015563;28;20301;-71
2021/01/30 05:07:05;;;;;;;3.53;1.90;;;-13.80;99.90;;;;;;5002657;28;20209;-71
2021/01/30 05:10:02;;;;;;;5.70;2.20;;;-13.70;99.90;;;;;;5013863;28;20557;-71
2021/01/30 05:12:46;;;;;;;9.00;1.97;;;-13.60;99.90;;;;;;5005224;28;20307;-71
2021/01/30 05:15:39;;;;;;;8.10;1.97;;;-13.60;99.90;;;;;;5015193;28;20221;-71
2021/01/30 05:18:14;;;;;;;4.63;1.70;;;-13.60;99.90;;;;;;5018205;28;20730;-71
2021/01/30 05:20:51;;;;;;;3.40;1.77;;;-13.60;99.90;;;;;;5018649;28;20196;-71
2021/01/30 05:23:17;;;;;;;4.20;1.97;;;-13.60;99.90;;;;;;5017645;28;20195;-70
2021/01/30 05:25:45;;;;;;;5.20;1.83;;;-13.70;99.90;;;;;;5014100;28;20319;-71
2021/01/30 05:28:51;;;;;;;3.37;1.93;;;-13.60;99.90;;;;;;5015710;28;20218;-70
2021/01/30 05:31:44;;;;;;;2.40;1.50;;;-13.70;99.90;;;;;;4976652;28;20306;-70
2021/01/30 05:34:20;;;;;;;3.07;1.80;;;-13.80;99.90;;;;;;5017239;28;20200;-71
2021/01/30 05:36:53;;;;;;;3.67;1.90;;;-13.80;99.90;;;;;;5018746;28;20263;-71
2021/01/30 05:39:51;;;;;;;3.57;1.73;;;-13.90;99.90;;;;;;5021803;28;20305;-70
2021/01/30 05:42:35;;;;;;;2.73;1.70;;;-13.90;99.90;;;;;;5012451;28;20207;-71
2021/01/30 05:45:39;;;;;;;20.10;1.87;;;-14.00;99.90;;;;;;5013906;28;20194;-71
2021/01/30 05:48:10;;;;;;;3.53;1.90;;;-14.20;99.90;;;;;;5016937;28;20275;-71
2021/01/30 05:50:45;;;;;;;3.63;1.43;;;-14.30;99.90;;;;;;5003173;28;20194;-71
2021/01/30 05:53:15;;;;;;;3.43;1.70;;;-14.30;99.90;;;;;;5005936;28;20198;-70
2021/01/30 05:55:41;;;;;;;8.77;1.87;;;-14.30;99.90;;;;;;5014480;28;20197;-71
2021/01/30 05:58:10;;;;;;;6.30;2.57;;;-14.30;99.90;;;;;;5015424;28;20673;-72
2021/01/30 06:00:39;;;;;;;5.43;2.10;;;-14.30;99.90;;;;;;5016590;28;20203;-72
2021/01/30 06:03:08;;;;;;;6.23;2.00;;;-14.30;99.90;;;;;;5018642;28;20238;-71
2021/01/30 06:05:36;;;;;;;7.70;2.00;;;-14.30;99.90;;;;;;4999492;28;20198;-72
2021/01/30 06:08:23;;;;;;;10.70;1.77;;;-14.20;99.90;;;;;;5014574;28;20265;-70
2021/01/30 06:11:03;;;;;;;3.90;2.10;;;-14.20;99.90;;;;;;5013981;28;20688;-71
2021/01/30 06:13:29;;;;;;;4.30;1.87;;;-14.20;99.90;;;;;;5006540;28;20205;-71
2021/01/30 06:16:03;;;;;;;5.33;1.60;;;-14.20;99.90;;;;;;5015610;28;20233;-71
2021/01/30 06:18:37;;;;;;;3.37;1.83;;;-14.10;99.90;;;;;;5017020;28;20741;-71
2021/01/30 06:21:09;;;;;;;5.63;2.07;;;-14.20;99.90;;;;;;5019190;28;20190;-71
2021/01/30 06:23:36;;;;;;;6.80;1.97;;;-14.20;99.90;;;;;;5024136;28;20677;-71
2021/01/30 06:26:20;;;;;;;2.30;1.80;;;-14.30;99.90;;;;;;5004329;28;20195;-72
2021/01/30 06:29:05;;;;;;;5.93;1.90;;;-14.30;99.90;;;;;;5015761;28;20221;-72
2021/01/30 06:31:40;;;;;;;9.63;2.13;;;-14.30;99.90;;;;;;5015273;28;20202;-70
2021/01/30 06:34:19;;;;;;;4.07;1.70;;;-14.30;99.90;;;;;;5015884;28;20194;-71
2021/01/30 06:36:50;;;;;;;3.83;1.70;;;-14.40;99.90;;;;;;4999258;28;20653;-71
2021/01/30 06:39:34;;;;;;;7.43;1.47;;;-14.40;99.90;;;;;;5019256;28;20207;-71
2021/01/30 06:42:15;;;;;;;3.70;1.63;;;-14.40;99.90;;;;;;5011156;28;20583;-70
2021/01/30 06:44:41;;;;;;;4.53;1.80;;;-14.40;99.90;;;;;;5004966;28;20194;-72
2021/01/30 06:47:19;;;;;;;5.90;1.93;;;-14.40;99.90;;;;;;5016014;28;20202;-70
2021/01/30 06:49:53;;;;;;;1.93;1.60;;;-14.40;99.90;;;;;;5013614;28;20605;-71
2021/01/30 06:52:28;;;;;;;8.73;1.70;;;-14.50;99.90;;;;;;5015820;28;20630;-71
2021/01/30 06:55:06;;;;;;;5.37;1.57;;;-14.60;99.90;;;;;;5014345;28;20202;-71
2021/01/30 06:57:33;;;;;;;4.93;2.03;;;-14.70;99.90;;;;;;5015342;28;20206;-71
2021/01/30 07:00:17;;;;;;;4.97;2.07;;;-14.70;99.90;;;;;;5013956;28;20213;-71
2021/01/30 07:02:46;;;;;;;2.10;1.50;;;-14.70;99.90;;;;;;5017162;28;20219;-71
2021/01/30 07:05:23;;;;;;;6.87;2.13;;;-14.60;99.90;;;;;;5014848;28;20286;-70
2021/01/30 07:08:01;;;;;;;3.07;1.90;;;-14.60;99.90;;;;;;5016179;28;20949;-71
2021/01/30 07:10:51;;;;;;;4.47;1.60;;;-14.60;99.90;;;;;;5015514;28;20191;-70
2021/01/30 07:13:50;;;;;;;3.03;2.00;;;-14.60;99.90;;;;;;5018069;28;20201;-70
2021/01/30 07:16:40;;;;;;;8.70;2.07;;;-14.60;99.90;;;;;;5008122;28;20661;-70
2021/01/30 07:19:24;;;;;;;3.87;1.70;;;-14.60;99.90;;;;;;5021960;28;20284;-70
2021/01/30 07:21:59;;;;;;;5.03;1.90;;;-14.60;99.90;;;;;;5023391;28;20197;-70
2021/01/30 07:24:44;;;;;;;5.67;1.80;;;-14.50;99.90;;;;;;5002683;28;20197;-70
2021/01/30 07:27:35;;;;;;;1.93;1.70;;;-14.40;99.90;;;;;;5018236;28;20696;-70
2021/01/30 07:30:43;;;;;;;6.63;1.97;;;-14.30;99.90;;;;;;5013895;28;20202;-70
2021/01/30 07:33:16;;;;;;;2.33;1.83;;;-14.20;99.90;;;;;;4984972;28;21002;-70
2021/01/30 07:35:59;;;;;;;2.40;1.67;;;-14.20;99.90;;;;;;5019564;28;20563;-70
2021/01/30 07:38:44;;;;;;;3.63;2.03;;;-14.20;99.90;;;;;;5019811;28;20564;-70
2021/01/30 07:41:34;;;;;;;7.90;1.83;;;-14.20;99.90;;;;;;5021856;28;20208;-70
2021/01/30 07:44:11;;;;;;;7.00;1.43;;;-14.10;99.90;;;;;;5017374;28;20205;-70
2021/01/30 07:46:42;;;;;;;2.20;1.50;;;-14.00;99.90;;;;;;5017103;28;20699;-71
2021/01/30 07:49:21;;;;;;;3.43;1.83;;;-14.00;99.90;;;;;;5018073;28;20202;-69
2021/01/30 07:51:59;;;;;;;2.87;1.87;;;-13.90;99.90;;;;;;5015773;28;20707;-71
2021/01/30 07:54:25;;;;;;;3.97;1.57;;;-13.80;99.90;;;;;;5016107;28;20672;-70
2021/01/30 07:57:25;;;;;;;2.53;1.50;;;-13.70;99.90;;;;;;5017240;28;20243;-71
2021/01/30 07:59:57;;;;;;;4.57;1.80;;;-13.60;99.90;;;;;;5017179;28;20213;-70
2021/01/30 08:02:46;;;;;;;3.07;1.73;;;-13.60;99.90;;;;;;5014638;28;20287;-70
2021/01/30 08:05:33;;;;;;;5.07;1.77;;;-13.50;99.90;;;;;;5019017;28;20217;-70
2021/01/30 08:08:14;;;;;;;1.53;1.43;;;-13.40;99.90;;;;;;5016836;28;20255;-70
2021/01/30 08:10:57;;;;;;;3.13;2.00;;;-13.30;99.90;;;;;;5016345;28;20206;-70
2021/01/30 08:13:32;;;;;;;6.97;1.63;;;-13.20;99.90;;;;;;5018149;28;20209;-70
2021/01/30 08:16:05;;;;;;;2.40;1.37;;;-13.10;99.90;;;;;;5014738;28;20976;-70
2021/01/30 08:18:38;;;;;;;6.17;1.93;;;-13.00;99.90;;;;;;5017145;28;20292;-71
2021/01/30 08:21:20;;;;;;;3.23;2.30;;;-12.90;99.90;;;;;;5010755;28;20199;-71
2021/01/30 08:23:50;;;;;;;3.90;2.40;;;-12.80;99.90;;;;;;4993611;28;20199;-70
2021/01/30 08:26:33;;;;;;;21.13;5.37;;;-12.80;99.90;;;;;;4993261;28;20608;-70
2021/01/30 08:29:17;;;;;;;10.80;3.67;;;-12.80;99.90;;;;;;5010467;28;20252;-70
2021/01/30 08:31:55;;;;;;;6.03;2.93;;;-12.80;99.90;;;;;;4990209;28;20198;-70
2021/01/30 08:34:20;;;;;;;5.30;2.47;;;-12.70;99.90;;;;;;5012375;28;20202;-71
2021/01/30 08:36:55;;;;;;;3.73;2.67;;;-12.80;99.90;;;;;;4991990;28;20238;-70
2021/01/30 08:39:36;;;;;;;3.70;1.70;;;-12.80;99.90;;;;;;5008564;28;20704;-70
2021/01/30 08:42:29;;;;;;;7.43;1.70;;;-12.90;99.90;;;;;;4991939;28;20333;-71
2021/01/30 08:44:58;;;;;;;4.50;1.93;;;-12.90;99.90;;;;;;5005501;28;20252;-71
2021/01/30 08:47:35;;;;;;;2.67;1.80;;;-12.90;99.90;;;;;;5009667;28;20221;-70
2021/01/30 08:50:25;;;;;;;2.73;1.53;;;-12.90;99.90;;;;;;5007259;28;20211;-70
2021/01/30 08:52:56;;;;;;;3.27;1.80;;;-12.80;99.90;;;;;;5011263;28;20245;-71
2021/01/30 08:55:23;;;;;;;2.83;1.53;;;-12.70;99.90;;;;;;5012471;28;20260;-70
2021/01/30 08:57:49;;;;;;;3.80;1.70;;;-12.80;99.90;;;;;;5009712;28;20202;-70
2021/01/30 09:00:27;;;;;;;3.73;1.70;;;-12.70;99.90;;;;;;5012993;28;20692;-70
2021/01/30 09:02:58;;;;;;;2.63;1.63;;;-12.60;99.90;;;;;;5013124;28;20226;-70
2021/01/30 09:05:26;;;;;;;6.70;2.00;;;-12.50;99.90;;;;;;5014209;28;20258;-71
2021/01/30 09:07:56;;;;;;;4.33;1.90;;;-12.40;99.90;;;;;;5011565;28;20242;-70
2021/01/30 09:10:21;;;;;;;4.23;1.77;;;-12.40;99.90;;;;;;5015674;28;20692;-70
2021/01/30 09:13:13;;;;;;;5.20;2.13;;;-12.40;99.90;;;;;;5010288;28;20205;-69
2021/01/30 09:15:41;;;;;;;8.93;2.13;;;-12.30;99.90;;;;;;5009433;28;20289;-70
2021/01/30 09:18:22;;;;;;;2.53;1.60;;;-12.30;99.90;;;;;;5011753;28;20199;-70
2021/01/30 09:21:16;;;;;;;3.80;1.90;;;-12.20;99.90;;;;;;5014305;28;20748;-70
2021/01/30 09:24:19;;;;;;;15.97;2.00;;;-12.10;99.90;;;;;;4994883;28;20212;-70
2021/01/30 09:27:00;;;;;;;3.23;1.77;;;-12.10;99.90;;;;;;5012608;28;20252;-70
2021/01/30 09:29:35;;;;;;;3.60;1.90;;;-12.00;99.90;;;;;;5013453;28;20216;-70
2021/01/30 09:32:01;;;;;;;3.23;1.70;;;-11.90;99.90;;;;;;5010059;28;20248;-71
2021/01/30 09:34:51;;;;;;;8.40;2.57;;;-11.80;99.90;;;;;;5011892;28;20205;-70
2021/01/30 09:37:33;;;;;;;3.33;1.80;;;-11.70;99.90;;;;;;5001759;28;20906;-70
2021/01/30 09:40:00;;;;;;;7.50;1.90;;;-11.60;99.90;;;;;;4993591;28;20202;-70
2021/01/30 09:42:28;;;;;;;15.23;5.20;;;-11.50;99.90;;;;;;5013111;28;20194;-69
2021/01/30 09:45:24;;;;;;;9.53;2.80;;;-11.30;99.90;;;;;;5002920;28;20202;-70
2021/01/30 09:47:52;;;;;;;12.03;2.67;;;-11.10;99.90;;;;;;5016255;28;20207;-69
2021/01/30 09:50:24;;;;;;;8.83;2.40;;;-10.70;99.90;;;;;;5018800;28;20213;-69
2021/01/30 09:53:01;;;;;;;4.00;2.20;;;-10.30;99.90;;;;;;5010994;28;20198;-70
2021/01/30 09:55:27;;;;;;;4.77;2.10;;;-10.00;99.90;;;;;;5004810;28;20208;-69
2021/01/30 09:58:10;;;;;;;5.87;2.10;;;-9.80;99.90;;;;;;4994306;28;20559;-70
2021/01/30 10:00:41;;;;;;;3.20;1.97;;;-9.50;99.90;;;;;;5015953;28;20272;-70
2021/01/30 10:03:20;;;;;;;4.50;1.93;;;-9.40;99.90;;;;;;4997202;28;20277;-70
2021/01/30 10:05:50;;;;;;;6.57;2.23;;;-9.40;99.90;;;;;;5013594;28;20233;-69
2021/01/30 10:08:33;;;;;;;6.07;2.10;;;-9.40;99.90;;;;;;5018621;28;20206;-69
2021/01/30 10:11:11;;;;;;;4.80;1.80;;;-9.30;99.90;;;;;;5014856;28;20698;-70
2021/01/30 10:13:40;;;;;;;4.47;1.90;;;-9.10;99.90;;;;;;5014971;28;20244;-70
2021/01/30 10:16:15;;;;;;;8.63;2.43;;;-9.10;99.90;;;;;;5017828;28;20202;-71
2021/01/30 10:18:45;;;;;;;6.90;2.07;;;-8.90;99.90;;;;;;5018935;28;20281;-70
2021/01/30 10:21:11;;;;;;;5.53;2.43;;;-8.80;99.90;;;;;;4993811;28;20285;-70
2021/01/30 10:23:45;;;;;;;6.37;2.60;;;-8.90;99.90;;;;;;5017907;28;20333;-70
2021/01/30 10:26:23;;;;;;;4.17;2.70;;;-8.60;99.90;;;;;;5017106;28;20218;-70
2021/01/30 10:28:56;;;;;;;8.17;3.10;;;-8.40;99.90;;;;;;5011085;28;20726;-71
2021/01/30 10:31:31;;;;;;;6.47;3.50;;;-8.20;99.90;;;;;;5015651;28;20194;-70
2021/01/30 10:34:07;;;;;;;9.27;4.60;;;-7.90;99.90;;;;;;4993923;28;20680;-70
2021/01/30 10:36:37;;;;;;;8.93;4.67;;;-7.90;99.90;;;;;;5009321;28;20202;-70
2021/01/30 10:39:04;;;;;;;4.90;2.90;;;-7.80;99.90;;;;;;4998399;28;20245;-70
2021/01/30 10:41:31;;;;;;;6.00;2.57;;;-7.70;99.90;;;;;;5018156;28;20684;-70
2021/01/30 10:44:05;;;;;;;9.90;3.00;;;-7.70;99.90;;;;;;4998502;28;20766;-71
2021/01/30 10:46:43;;;;;;;6.23;2.83;;;-7.60;99.90;;;;;;5015932;28;20293;-71
2021/01/30 10:49:23;;;;;;;5.37;2.67;;;-7.40;99.90;;;;;;5021971;28;20194;-70
2021/01/30 10:52:10;;;;;;;6.77;2.90;;;-7.40;99.90;;;;;;5018858;28;22198;-71
2021/01/30 10:54:39;;;;;;;5.33;2.57;;;-7.30;99.90;;;;;;4995944;28;20294;-70
2021/01/30 10:57:16;;;;;;;7.70;2.33;;;-7.30;99.90;;;;;;5011874;28;20234;-70
2021/01/30 10:59:51;;;;;;;4.23;2.00;;;-7.30;99.90;;;;;;5016180;28;20994;-71
2021/01/30 11:02:23;;;;;;;4.07;2.07;;;-7.30;99.90;;;;;;5015928;28;20763;-70
2021/01/30 11:05:23;;;;;;;3.60;2.00;;;-7.40;99.90;;;;;;5020748;28;20350;-71
2021/01/30 11:07:51;;;;;;;2.97;2.03;;;-7.50;99.90;;;;;;5001823;28;20380;-70
2021/01/30 11:10:27;;;;;;;4.13;1.67;;;-7.50;99.90;;;;;;5014261;28;20583;-70
2021/01/30 11:13:06;;;;;;;2.50;1.80;;;-7.50;99.90;;;;;;5002934;28;20264;-71
2021/01/30 11:15:32;;;;;;;7.63;2.00;;;-7.30;99.90;;;;;;4996754;28;20230;-71
2021/01/30 11:18:28;;;;;;;3.07;1.73;;;-7.20;99.90;;;;;;5017036;28;20203;-71
2021/01/30 11:20:56;;;;;;;2.77;1.63;;;-7.40;99.90;;;;;;4997835;28;21059;-71
2021/01/30 11:23:46;;;;;;;3.07;1.80;;;-7.40;99.90;;;;;;5019867;28;20278;-71
2021/01/30 11:26:12;;;;;;;4.13;2.07;;;-7.40;99.90;;;;;;5015844;28;20205;-71
2021/01/30 11:28:38;;;;;;;5.00;1.77;;;-7.50;99.90;;;;;;5011914;28;20199;-71
2021/01/30 11:31:04;;;;;;;4.23;2.27;;;-7.50;99.90;;;;;;5017524;28;20930;-72
2021/01/30 11:33:31;;;;;;;5.80;2.20;;;-7.30;99.90;;;;;;5015551;28;20198;-71
2021/01/30 11:35:57;;;;;;;4.50;2.40;;;-7.20;99.90;;;;;;5023081;28;20194;-71
2021/01/30 11:38:25;;;;;;;3.47;2.03;;;-7.20;99.90;;;;;;5013528;28;20252;-70
2021/01/30 11:40:53;;;;;;;5.93;2.37;;;-7.30;99.90;;;;;;5009381;28;20296;-70
2021/01/30 11:43:20;;;;;;;7.03;2.30;;;-7.40;99.90;;;;;;5015041;28;20281;-71
2021/01/30 11:45:46;;;;;;;3.00;1.77;;;-7.30;99.90;;;;;;5010460;28;20224;-70
2021/01/30 11:48:12;;;;;;;3.03;2.07;;;-7.10;99.90;;;;;;5013513;28;20217;-71
2021/01/30 11:50:39;;;;;;;4.57;2.10;;;-6.90;99.90;;;;;;5012508;28;20639;-71
2021/01/30 11:53:25;;;;;;;4.00;2.20;;;-6.80;99.90;;;;;;5016384;28;20198;-72
2021/01/30 11:55:52;;;;;;;3.53;1.70;;;-7.00;99.90;;;;;;5008376;28;20615;-71
2021/01/30 11:58:19;;;;;;;5.73;2.00;;;-7.30;99.90;;;;;;5009958;28;20198;-71
2021/01/30 12:00:45;;;;;;;3.97;2.17;;;-7.50;99.90;;;;;;5013554;28;20214;-71
2021/01/30 12:03:31;;;;;;;3.50;1.93;;;-7.70;99.90;;;;;;5018405;28;20229;-71
2021/01/30 12:05:58;;;;;;;6.77;2.17;;;-7.70;99.90;;;;;;5016983;28;20680;-70
2021/01/30 12:08:25;;;;;;;3.90;2.07;;;-7.60;99.90;;;;;;5015353;28;20195;-70
2021/01/30 12:10:52;;;;;;;6.33;1.97;;;-7.40;99.90;;;;;;5017262;28;20194;-70
2021/01/30 12:13:18;;;;;;;7.73;2.07;;;-7.20;99.90;;;;;;5016409;28;20206;-70
2021/01/30 12:15:44;;;;;;;4.73;1.97;;;-6.80;99.90;;;;;;5018572;28;20206;-70
2021/01/30 12:18:11;;;;;;;3.90;1.97;;;-6.70;99.90;;;;;;5018079;28;20210;-71
2021/01/30 12:20:37;;;;;;;6.53;2.20;;;-6.60;99.90;;;;;;5001011;28;20213;-71
2021/01/30 12:23:04;;;;;;;3.50;1.90;;;-6.60;99.90;;;;;;5016072;28;20202;-71
2021/01/30 12:25:29;;;;;;;3.53;2.00;;;-6.80;99.90;;;;;;5014072;28;20203;-70
2021/01/30 12:27:58;;;;;;;5.67;2.27;;;-7.00;99.90;;;;;;5012779;28;20208;-70
2021/01/30 12:30:27;;;;;;;3.33;2.03;;;-7.20;99.90;;;;;;5013641;28;20201;-70
2021/01/30 12:32:54;;;;;;;5.47;2.17;;;-7.20;99.90;;;;;;5002579;28;20194;-71
2021/01/30 12:35:23;;;;;;;2.83;2.03;;;-7.00;99.90;;;;;;5020285;28;20680;-71
2021/01/30 12:37:49;;;;;;;8.17;2.03;;;-6.80;99.90;;;;;;5021017;28;20198;-71
2021/01/30 12:40:16;;;;;;;3.50;2.10;;;-6.90;99.90;;;;;;5017241;28;20210;-71
2021/01/30 12:42:41;;;;;;;3.67;2.00;;;-7.20;99.90;;;;;;5017933;28;20205;-70
2021/01/30 12:45:08;;;;;;;3.97;2.17;;;-7.50;99.90;;;;;;5027805;28;20194;-70
2021/01/30 12:47:35;;;;;;;7.30;2.37;;;-7.80;99.90;;;;;;5012751;28;20201;-71
2021/01/30 12:50:02;;;;;;;5.47;2.27;;;-8.20;99.90;;;;;;5023626;28;20255;-70
2021/01/30 12:52:27;;;;;;;3.83;2.27;;;-8.20;99.90;;;;;;5015862;28;20669;-70
2021/01/30 12:54:53;;;;;;;3.17;2.17;;;-8.30;99.90;;;;;;5011345;28;20203;-70
2021/01/30 12:57:19;;;;;;;4.73;2.30;;;-8.30;99.90;;;;;;5023884;28;20829;-70
2021/01/30 12:59:45;;;;;;;4.90;2.60;;;-8.30;99.90;;;;;;4998063;28;20214;-70
2021/01/30 13:02:11;;;;;;;4.20;2.00;;;-8.40;99.90;;;;;;5018206;28;20226;-71
2021/01/30 13:04:37;;;;;;;3.83;2.07;;;-8.50;99.90;;;;;;5020325;28;20991;-71
2021/01/30 13:07:03;;;;;;;3.33;1.97;;;-8.70;99.90;;;;;;5021316;28;20281;-71
2021/01/30 13:09:29;;;;;;;4.40;2.20;;;-8.70;99.90;;;;;;5021622;28;21012;-70
2021/01/30 13:11:56;;;;;;;6.87;2.60;;;-8.80;99.90;;;;;;5024236;28;20198;-69